sensor_id;sensor_type;location;lat;lon;timestamp;pressure;altitude;pressure_sealevel;temperature;humidity
12213;BME280;6169;44.158;22.788;2023-02-11T00:03:41;103128.38;;;-1.23;49.01
12213;BME280;6169;44.158;22.788;2023-02-11T00:08:45;103127.75;;;-1.28;49.66
12213;BME280;6169;44.158;22.788;2023-02-11T00:13:47;103124.75;;;-1.22;49.08
12213;BME280;6169;44.158;22.788;2023-02-11T00:18:50;103121.69;;;-1.63;51.65
12213;BME280;6169;44.158;22.788;2023-02-11T00:23:55;103136.03;;;-1.50;51.58
12213;BME280;6169;44.158;22.788;2023-02-11T00:28:59;103129.56;;;-1.28;51.67
12213;BME280;6169;44.158;22.788;2023-02-11T00:34:01;103131.09;;;-1.24;51.26
12213;BME280;6169;44.158;22.788;2023-02-11T00:39:05;103130.25;;;-1.25;50.43
12213;BME280;6169;44.158;22.788;2023-02-11T00:44:08;103123.59;;;-1.49;51.42
12213;BME280;6169;44.158;22.788;2023-02-11T00:49:10;103125.63;;;-1.37;50.69
12213;BME280;6169;44.158;22.788;2023-02-11T00:54:14;103121.16;;;-1.37;51.47
12213;BME280;6169;44.158;22.788;2023-02-11T00:59:16;103119.19;;;-1.17;50.49
12213;BME280;6169;44.158;22.788;2023-02-11T01:04:18;103115.13;;;-1.24;50.87
12213;BME280;6169;44.158;22.788;2023-02-11T01:09:21;103117.56;;;-1.04;50.89
12213;BME280;6169;44.158;22.788;2023-02-11T01:14:23;103115.34;;;-1.11;51.25
12213;BME280;6169;44.158;22.788;2023-02-11T01:19:26;103098.66;;;-0.83;51.23
12213;BME280;6169;44.158;22.788;2023-02-11T01:24:29;103099.16;;;-0.77;50.94
12213;BME280;6169;44.158;22.788;2023-02-11T01:29:32;103093.44;;;-1.17;52.65
12213;BME280;6169;44.158;22.788;2023-02-11T01:34:34;103095.94;;;-1.14;52.69
12213;BME280;6169;44.158;22.788;2023-02-11T01:39:38;103083.47;;;-0.81;52.33
12213;BME280;6169;44.158;22.788;2023-02-11T01:44:40;103074.66;;;-0.98;52.28
12213;BME280;6169;44.158;22.788;2023-02-11T01:49:44;103080.13;;;-1.32;52.73
12213;BME280;6169;44.158;22.788;2023-02-11T01:54:50;103070.44;;;-1.33;53.16
12213;BME280;6169;44.158;22.788;2023-02-11T02:00:13;103066.59;;;-1.28;52.84
12213;BME280;6169;44.158;22.788;2023-02-11T02:05:24;103075.69;;;-1.32;52.37
12213;BME280;6169;44.158;22.788;2023-02-11T02:10:33;103070.78;;;-1.24;51.37
12213;BME280;6169;44.158;22.788;2023-02-11T02:15:38;103071.50;;;-1.20;50.61
12213;BME280;6169;44.158;22.788;2023-02-11T02:20:57;103077.13;;;-1.58;48.98
12213;BME280;6169;44.158;22.788;2023-02-11T02:26:25;103072.00;;;-1.45;50.92
12213;BME280;6169;44.158;22.788;2023-02-11T02:31:51;103069.56;;;-1.18;50.30
12213;BME280;6169;44.158;22.788;2023-02-11T02:37:03;103077.91;;;-1.40;50.74
12213;BME280;6169;44.158;22.788;2023-02-11T02:42:08;103073.13;;;-1.33;50.36
12213;BME280;6169;44.158;22.788;2023-02-11T02:47:10;103070.88;;;-1.41;50.60
12213;BME280;6169;44.158;22.788;2023-02-11T02:52:25;103074.47;;;-1.42;50.26
12213;BME280;6169;44.158;22.788;2023-02-11T02:57:38;103066.66;;;-1.77;51.72
12213;BME280;6169;44.158;22.788;2023-02-11T03:02:55;103067.78;;;-1.33;51.13
12213;BME280;6169;44.158;22.788;2023-02-11T03:08:08;103056.47;;;-1.53;50.57
12213;BME280;6169;44.158;22.788;2023-02-11T03:13:12;103055.41;;;-1.66;50.86
12213;BME280;6169;44.158;22.788;2023-02-11T03:18:20;103055.06;;;-1.76;49.95
12213;BME280;6169;44.158;22.788;2023-02-11T03:23:27;103055.16;;;-1.62;49.58
12213;BME280;6169;44.158;22.788;2023-02-11T03:28:32;103052.91;;;-1.69;50.79
12213;BME280;6169;44.158;22.788;2023-02-11T03:33:39;103056.13;;;-1.47;48.95
12213;BME280;6169;44.158;22.788;2023-02-11T03:38:47;103049.78;;;-1.60;48.76
12213;BME280;6169;44.158;22.788;2023-02-11T03:43:53;103050.81;;;-1.47;48.44
12213;BME280;6169;44.158;22.788;2023-02-11T03:48:59;103047.38;;;-1.65;48.57
12213;BME280;6169;44.158;22.788;2023-02-11T03:54:09;103043.41;;;-1.58;48.88
12213;BME280;6169;44.158;22.788;2023-02-11T03:59:11;103044.44;;;-1.76;48.74
12213;BME280;6169;44.158;22.788;2023-02-11T04:04:13;103035.78;;;-1.79;49.34
12213;BME280;6169;44.158;22.788;2023-02-11T04:09:17;103031.66;;;-1.69;48.25
12213;BME280;6169;44.158;22.788;2023-02-11T04:14:19;103023.94;;;-1.90;47.94
12213;BME280;6169;44.158;22.788;2023-02-11T04:19:21;103015.44;;;-2.30;45.95
12213;BME280;6169;44.158;22.788;2023-02-11T04:24:25;102849.94;;;-3.12;46.86
12213;BME280;6169;44.158;22.788;2023-02-11T04:29:27;103019.19;;;-2.00;47.17
12213;BME280;6169;44.158;22.788;2023-02-11T04:34:30;103021.25;;;-2.23;47.03
12213;BME280;6169;44.158;22.788;2023-02-11T04:39:34;103012.78;;;-2.30;46.78
12213;BME280;6169;44.158;22.788;2023-02-11T04:44:36;103018.19;;;-2.49;46.74
12213;BME280;6169;44.158;22.788;2023-02-11T04:49:38;103020.13;;;-2.35;45.62
12213;BME280;6169;44.158;22.788;2023-02-11T04:54:42;103012.72;;;-2.45;45.41
12213;BME280;6169;44.158;22.788;2023-02-11T04:59:44;103013.09;;;-2.53;46.08
12213;BME280;6169;44.158;22.788;2023-02-11T05:04:47;103014.56;;;-2.48;45.76
12213;BME280;6169;44.158;22.788;2023-02-11T05:09:51;103016.06;;;-2.24;46.02
12213;BME280;6169;44.158;22.788;2023-02-11T05:14:53;103010.78;;;-2.09;48.62
12213;BME280;6169;44.158;22.788;2023-02-11T05:19:56;103021.56;;;-1.63;48.94
12213;BME280;6169;44.158;22.788;2023-02-11T05:24:59;103022.59;;;-1.49;48.83
12213;BME280;6169;44.158;22.788;2023-02-11T05:30:01;103037.06;;;-1.07;48.47
12213;BME280;6169;44.158;22.788;2023-02-11T05:35:04;103043.59;;;-0.67;47.67
12213;BME280;6169;44.158;22.788;2023-02-11T05:40:09;103036.47;;;-0.66;48.17
12213;BME280;6169;44.158;22.788;2023-02-11T05:45:12;103038.16;;;-0.65;47.04
12213;BME280;6169;44.158;22.788;2023-02-11T05:50:14;103040.75;;;-0.64;47.06
12213;BME280;6169;44.158;22.788;2023-02-11T05:55:18;103036.84;;;-0.73;47.37
12213;BME280;6169;44.158;22.788;2023-02-11T06:00:20;103029.47;;;-0.53;47.50
12213;BME280;6169;44.158;22.788;2023-02-11T06:05:23;103029.31;;;-0.36;47.24
12213;BME280;6169;44.158;22.788;2023-02-11T06:10:27;103035.03;;;-0.13;47.51
12213;BME280;6169;44.158;22.788;2023-02-11T06:15:29;103039.59;;;-0.01;48.08
12213;BME280;6169;44.158;22.788;2023-02-11T06:20:31;103037.41;;;0.20;48.40
12213;BME280;6169;44.158;22.788;2023-02-11T06:25:36;103036.00;;;0.29;48.84
12213;BME280;6169;44.158;22.788;2023-02-11T06:30:38;103004.47;;;0.21;49.10
12213;BME280;6169;44.158;22.788;2023-02-11T06:35:40;103038.84;;;0.40;50.05
12213;BME280;6169;44.158;22.788;2023-02-11T06:40:47;103045.03;;;0.67;50.53
12213;BME280;6169;44.158;22.788;2023-02-11T06:45:51;103040.34;;;0.85;50.83
12213;BME280;6169;44.158;22.788;2023-02-11T06:50:54;103043.41;;;1.06;49.76
12213;BME280;6169;44.158;22.788;2023-02-11T06:56:02;103032.19;;;1.41;49.75
12213;BME280;6169;44.158;22.788;2023-02-11T07:01:06;103039.75;;;1.34;50.40
12213;BME280;6169;44.158;22.788;2023-02-11T07:06:12;103031.78;;;1.47;50.10
12213;BME280;6169;44.158;22.788;2023-02-11T07:11:17;103034.91;;;1.92;48.62
12213;BME280;6169;44.158;22.788;2023-02-11T07:16:20;103040.97;;;2.20;48.24
12213;BME280;6169;44.158;22.788;2023-02-11T07:21:23;103022.22;;;2.33;48.41
12213;BME280;6169;44.158;22.788;2023-02-11T07:26:28;103037.88;;;2.50;48.02
12213;BME280;6169;44.158;22.788;2023-02-11T07:31:30;103036.44;;;2.70;47.46
12213;BME280;6169;44.158;22.788;2023-02-11T07:36:33;103033.50;;;2.86;47.99
12213;BME280;6169;44.158;22.788;2023-02-11T07:41:37;103030.81;;;2.86;47.48
12213;BME280;6169;44.158;22.788;2023-02-11T07:46:39;103030.03;;;2.97;46.51
12213;BME280;6169;44.158;22.788;2023-02-11T07:51:44;103035.47;;;3.19;46.21
12213;BME280;6169;44.158;22.788;2023-02-11T07:56:49;103027.09;;;3.59;44.90
12213;BME280;6169;44.158;22.788;2023-02-11T08:01:51;103027.38;;;3.32;44.80
12213;BME280;6169;44.158;22.788;2023-02-11T08:06:53;103017.72;;;3.53;45.09
12213;BME280;6169;44.158;22.788;2023-02-11T08:11:58;103005.78;;;3.69;45.60
12213;BME280;6169;44.158;22.788;2023-02-11T08:17:01;102969.50;;;3.98;43.42
12213;BME280;6169;44.158;22.788;2023-02-11T08:22:04;103004.19;;;4.45;42.19
12213;BME280;6169;44.158;22.788;2023-02-11T08:27:07;103002.25;;;4.47;42.13
12213;BME280;6169;44.158;22.788;2023-02-11T08:32:10;102995.59;;;5.27;42.57
12213;BME280;6169;44.158;22.788;2023-02-11T08:37:12;102986.00;;;5.24;40.46
12213;BME280;6169;44.158;22.788;2023-02-11T08:42:16;102988.72;;;4.81;39.61
12213;BME280;6169;44.158;22.788;2023-02-11T08:47:18;102981.66;;;5.54;39.30
12213;BME280;6169;44.158;22.788;2023-02-11T08:52:20;102986.22;;;5.63;39.04
12213;BME280;6169;44.158;22.788;2023-02-11T08:57:24;102983.63;;;5.73;39.17
12213;BME280;6169;44.158;22.788;2023-02-11T09:02:26;102979.94;;;6.04;39.39
12213;BME280;6169;44.158;22.788;2023-02-11T09:07:29;102984.34;;;6.65;38.04
12213;BME280;6169;44.158;22.788;2023-02-11T09:12:33;102978.25;;;6.54;38.18
12213;BME280;6169;44.158;22.788;2023-02-11T09:17:35;102981.38;;;6.09;36.85
12213;BME280;6169;44.158;22.788;2023-02-11T09:22:37;102973.72;;;6.54;36.98
12213;BME280;6169;44.158;22.788;2023-02-11T09:27:41;102974.16;;;6.59;37.73
12213;BME280;6169;44.158;22.788;2023-02-11T09:32:43;102964.19;;;7.18;36.23
12213;BME280;6169;44.158;22.788;2023-02-11T09:37:45;102954.84;;;7.22;34.80
12213;BME280;6169;44.158;22.788;2023-02-11T09:42:50;102949.34;;;6.94;34.60
12213;BME280;6169;44.158;22.788;2023-02-11T09:47:55;102941.97;;;6.87;33.89
12213;BME280;6169;44.158;22.788;2023-02-11T09:53:00;102940.38;;;7.04;34.19
12213;BME280;6169;44.158;22.788;2023-02-11T09:58:11;102931.94;;;7.93;33.52
12213;BME280;6169;44.158;22.788;2023-02-11T10:08:58;102905.56;;;7.87;32.57
12213;BME280;6169;44.158;22.788;2023-02-11T10:14:15;102894.81;;;8.22;31.91
12213;BME280;6169;44.158;22.788;2023-02-11T10:19:29;102885.97;;;7.84;32.10
12213;BME280;6169;44.158;22.788;2023-02-11T10:24:35;102877.13;;;7.65;31.00
12213;BME280;6169;44.158;22.788;2023-02-11T10:29:44;102862.41;;;8.04;31.21
12213;BME280;6169;44.158;22.788;2023-02-11T10:34:48;102853.41;;;8.32;31.31
12213;BME280;6169;44.158;22.788;2023-02-11T10:39:52;102841.16;;;8.81;30.78
12213;BME280;6169;44.158;22.788;2023-02-11T10:45:01;102838.44;;;8.55;29.89
12213;BME280;6169;44.158;22.788;2023-02-11T10:50:17;102824.22;;;8.71;29.70
12213;BME280;6169;44.158;22.788;2023-02-11T10:55:21;102819.84;;;8.78;28.82
12213;BME280;6169;44.158;22.788;2023-02-11T11:00:34;102800.16;;;8.86;29.46
12213;BME280;6169;44.158;22.788;2023-02-11T11:05:47;102789.13;;;9.05;29.05
12213;BME280;6169;44.158;22.788;2023-02-11T11:11:02;102785.75;;;8.77;28.31
12213;BME280;6169;44.158;22.788;2023-02-11T11:16:16;102766.38;;;8.90;29.15
12213;BME280;6169;44.158;22.788;2023-02-11T11:21:21;102765.56;;;8.63;28.38
12213;BME280;6169;44.158;22.788;2023-02-11T11:26:25;102758.25;;;9.50;28.07
12213;BME280;6169;44.158;22.788;2023-02-11T11:31:33;102612.88;;;8.51;27.74
12213;BME280;6169;44.158;22.788;2023-02-11T11:36:38;102745.03;;;8.52;27.54
12213;BME280;6169;44.158;22.788;2023-02-11T11:41:49;102738.25;;;9.27;27.46
12213;BME280;6169;44.158;22.788;2023-02-11T11:47:14;102728.41;;;8.91;26.82
12213;BME280;6169;44.158;22.788;2023-02-11T11:52:32;102725.78;;;9.08;26.31
12213;BME280;6169;44.158;22.788;2023-02-11T11:57:38;102713.19;;;9.83;27.09
12213;BME280;6169;44.158;22.788;2023-02-11T12:08:25;102681.72;;;9.99;26.72
12213;BME280;6169;44.158;22.788;2023-02-11T12:13:47;102659.69;;;10.10;26.64
12213;BME280;6169;44.158;22.788;2023-02-11T12:24:55;102649.22;;;9.74;27.07
12213;BME280;6169;44.158;22.788;2023-02-11T12:30:12;102650.56;;;9.70;26.32
12213;BME280;6169;44.158;22.788;2023-02-11T12:35:26;102649.69;;;10.27;26.66
12213;BME280;6169;44.158;22.788;2023-02-11T12:40:37;102637.88;;;9.87;27.40
12213;BME280;6169;44.158;22.788;2023-02-11T12:45:59;102632.75;;;10.25;26.65
12213;BME280;6169;44.158;22.788;2023-02-11T12:51:08;102620.94;;;10.26;25.73
12213;BME280;6169;44.158;22.788;2023-02-11T12:56:19;102610.25;;;10.16;25.96
12213;BME280;6169;44.158;22.788;2023-02-11T13:01:25;102609.78;;;9.96;26.03
12213;BME280;6169;44.158;22.788;2023-02-11T13:06:39;102604.06;;;9.67;26.76
12213;BME280;6169;44.158;22.788;2023-02-11T13:11:45;102598.56;;;10.24;26.64
12213;BME280;6169;44.158;22.788;2023-02-11T13:16:52;102595.41;;;9.88;27.34
12213;BME280;6169;44.158;22.788;2023-02-11T13:22:16;102582.91;;;9.86;26.25
12213;BME280;6169;44.158;22.788;2023-02-11T13:27:31;102572.91;;;10.03;26.46
12213;BME280;6169;44.158;22.788;2023-02-11T13:33:05;102569.72;;;9.43;27.75
12213;BME280;6169;44.158;22.788;2023-02-11T13:38:19;102553.78;;;9.97;27.59
12213;BME280;6169;44.158;22.788;2023-02-11T13:43:25;102550.97;;;9.49;28.29
12213;BME280;6169;44.158;22.788;2023-02-11T13:48:30;102550.53;;;10.18;27.97
12213;BME280;6169;44.158;22.788;2023-02-11T13:53:44;102546.19;;;9.84;28.64
12213;BME280;6169;44.158;22.788;2023-02-11T13:58:50;102526.88;;;10.03;29.06
12213;BME280;6169;44.158;22.788;2023-02-11T14:04:17;102532.28;;;10.03;28.32
12213;BME280;6169;44.158;22.788;2023-02-11T14:09:39;102522.69;;;9.84;29.22
12213;BME280;6169;44.158;22.788;2023-02-11T14:14:58;102522.56;;;9.53;28.09
12213;BME280;6169;44.158;22.788;2023-02-11T14:20:02;102525.59;;;9.67;28.95
12213;BME280;6169;44.158;22.788;2023-02-11T14:25:25;102524.38;;;9.12;30.20
12213;BME280;6169;44.158;22.788;2023-02-11T14:30:53;102514.78;;;9.26;29.97
12213;BME280;6169;44.158;22.788;2023-02-11T14:36:06;102522.09;;;8.74;31.24
12213;BME280;6169;44.158;22.788;2023-02-11T14:41:17;102514.16;;;8.65;30.55
12213;BME280;6169;44.158;22.788;2023-02-11T14:46:23;102513.38;;;8.97;31.76
12213;BME280;6169;44.158;22.788;2023-02-11T14:51:29;102507.69;;;8.49;31.91
12213;BME280;6169;44.158;22.788;2023-02-11T14:56:32;102512.09;;;8.16;31.39
12213;BME280;6169;44.158;22.788;2023-02-11T15:01:40;102503.94;;;8.34;31.91
12213;BME280;6169;44.158;22.788;2023-02-11T15:06:46;102501.28;;;8.16;32.08
12213;BME280;6169;44.158;22.788;2023-02-11T15:11:50;102507.53;;;7.82;32.78
12213;BME280;6169;44.158;22.788;2023-02-11T15:16:56;102490.56;;;7.64;33.51
12213;BME280;6169;44.158;22.788;2023-02-11T15:21:59;102489.28;;;7.32;34.14
12213;BME280;6169;44.158;22.788;2023-02-11T15:27:08;102493.16;;;7.56;33.55
12213;BME280;6169;44.158;22.788;2023-02-11T15:32:16;102486.69;;;7.05;34.36
12213;BME280;6169;44.158;22.788;2023-02-11T15:37:20;102491.16;;;7.14;34.24
12213;BME280;6169;44.158;22.788;2023-02-11T15:42:25;102496.06;;;7.01;34.88
12213;BME280;6169;44.158;22.788;2023-02-11T15:47:29;102489.75;;;6.92;34.79
12213;BME280;6169;44.158;22.788;2023-02-11T15:52:32;102490.41;;;6.58;34.89
12213;BME280;6169;44.158;22.788;2023-02-11T15:57:35;102473.81;;;6.63;35.60
12213;BME280;6169;44.158;22.788;2023-02-11T16:02:38;102484.97;;;5.85;37.12
12213;BME280;6169;44.158;22.788;2023-02-11T16:07:46;102490.50;;;5.83;37.69
12213;BME280;6169;44.158;22.788;2023-02-11T16:12:55;102461.63;;;5.66;36.95
12213;BME280;6169;44.158;22.788;2023-02-11T16:18:02;102488.38;;;5.77;37.20
12213;BME280;6169;44.158;22.788;2023-02-11T16:23:06;102485.28;;;5.63;38.00
12213;BME280;6169;44.158;22.788;2023-02-11T16:28:13;102500.47;;;5.25;38.52
12213;BME280;6169;44.158;22.788;2023-02-11T16:33:18;102500.59;;;5.43;38.60
12213;BME280;6169;44.158;22.788;2023-02-11T16:38:21;102498.06;;;5.22;38.59
12213;BME280;6169;44.158;22.788;2023-02-11T16:43:23;102507.13;;;5.11;38.57
12213;BME280;6169;44.158;22.788;2023-02-11T16:48:27;102511.81;;;5.19;39.42
12213;BME280;6169;44.158;22.788;2023-02-11T16:53:29;102509.78;;;5.50;38.95
12213;BME280;6169;44.158;22.788;2023-02-11T16:58:32;102497.34;;;4.81;40.28
12213;BME280;6169;44.158;22.788;2023-02-11T17:03:37;102486.22;;;5.05;40.25
12213;BME280;6169;44.158;22.788;2023-02-11T17:08:40;102488.88;;;5.14;39.42
12213;BME280;6169;44.158;22.788;2023-02-11T17:13:42;102483.06;;;5.09;40.12
12213;BME280;6169;44.158;22.788;2023-02-11T17:18:46;102475.16;;;4.98;39.48
12213;BME280;6169;44.158;22.788;2023-02-11T17:23:49;102479.53;;;5.28;39.49
12213;BME280;6169;44.158;22.788;2023-02-11T17:28:51;102472.84;;;5.61;39.07
12213;BME280;6169;44.158;22.788;2023-02-11T17:33:55;102463.22;;;5.69;39.19
12213;BME280;6169;44.158;22.788;2023-02-11T17:38:57;102455.69;;;4.96;39.14
12213;BME280;6169;44.158;22.788;2023-02-11T17:44:00;102457.09;;;4.90;40.92
12213;BME280;6169;44.158;22.788;2023-02-11T17:49:04;102455.38;;;5.19;39.89
12213;BME280;6169;44.158;22.788;2023-02-11T17:54:09;102449.94;;;5.38;39.74
12213;BME280;6169;44.158;22.788;2023-02-11T17:59:13;102442.84;;;5.56;40.08
12213;BME280;6169;44.158;22.788;2023-02-11T18:04:18;102443.16;;;5.53;39.96
12213;BME280;6169;44.158;22.788;2023-02-11T18:09:21;102442.00;;;5.46;40.12
12213;BME280;6169;44.158;22.788;2023-02-11T18:14:23;102435.75;;;5.65;40.32
12213;BME280;6169;44.158;22.788;2023-02-11T18:19:27;102436.94;;;5.43;40.97
12213;BME280;6169;44.158;22.788;2023-02-11T18:24:32;102436.25;;;5.41;40.53
12213;BME280;6169;44.158;22.788;2023-02-11T18:29:35;102425.28;;;5.62;40.62
12213;BME280;6169;44.158;22.788;2023-02-11T18:34:40;102422.97;;;5.87;40.48
12213;BME280;6169;44.158;22.788;2023-02-11T18:39:42;102427.06;;;4.27;43.29
12213;BME280;6169;44.158;22.788;2023-02-11T18:44:45;102432.47;;;5.14;41.21
12213;BME280;6169;44.158;22.788;2023-02-11T18:49:48;102412.41;;;5.19;42.26
12213;BME280;6169;44.158;22.788;2023-02-11T18:54:51;102420.41;;;5.28;42.14
12213;BME280;6169;44.158;22.788;2023-02-11T18:59:53;102408.84;;;5.65;41.57
12213;BME280;6169;44.158;22.788;2023-02-11T19:04:57;102415.53;;;4.94;42.34
12213;BME280;6169;44.158;22.788;2023-02-11T19:09:59;102405.59;;;5.14;42.55
12213;BME280;6169;44.158;22.788;2023-02-11T19:15:02;102412.06;;;5.31;42.15
12213;BME280;6169;44.158;22.788;2023-02-11T19:20:08;102385.44;;;4.91;43.17
12213;BME280;6169;44.158;22.788;2023-02-11T19:25:10;102387.41;;;4.89;43.28
12213;BME280;6169;44.158;22.788;2023-02-11T19:30:13;102370.56;;;5.06;42.43
12213;BME280;6169;44.158;22.788;2023-02-11T19:35:17;102239.28;;;4.37;42.16
12213;BME280;6169;44.158;22.788;2023-02-11T19:40:19;102371.28;;;4.89;43.06
12213;BME280;6169;44.158;22.788;2023-02-11T19:45:22;102370.91;;;5.31;41.94
12213;BME280;6169;44.158;22.788;2023-02-11T19:50:27;102388.25;;;4.99;43.43
12213;BME280;6169;44.158;22.788;2023-02-11T19:55:29;102385.41;;;5.10;43.42
12213;BME280;6169;44.158;22.788;2023-02-11T20:00:34;102377.63;;;4.98;42.35
12213;BME280;6169;44.158;22.788;2023-02-11T20:05:39;102379.59;;;4.96;43.02
12213;BME280;6169;44.158;22.788;2023-02-11T20:10:46;102378.97;;;5.31;42.97
12213;BME280;6169;44.158;22.788;2023-02-11T20:15:48;102377.00;;;5.33;42.72
12213;BME280;6169;44.158;22.788;2023-02-11T20:20:52;102360.00;;;4.66;44.46
12213;BME280;6169;44.158;22.788;2023-02-11T20:25:54;102354.78;;;4.64;44.67
12213;BME280;6169;44.158;22.788;2023-02-11T20:30:57;102348.28;;;4.57;44.49
12213;BME280;6169;44.158;22.788;2023-02-11T20:36:02;102357.72;;;4.61;44.63
12213;BME280;6169;44.158;22.788;2023-02-11T20:41:06;102348.25;;;4.86;43.65
12213;BME280;6169;44.158;22.788;2023-02-11T20:46:10;102335.28;;;4.62;44.00
12213;BME280;6169;44.158;22.788;2023-02-11T20:51:16;102325.81;;;4.68;43.55
12213;BME280;6169;44.158;22.788;2023-02-11T20:56:21;102332.91;;;4.40;44.30
12213;BME280;6169;44.158;22.788;2023-02-11T21:01:26;102323.28;;;4.47;44.23
12213;BME280;6169;44.158;22.788;2023-02-11T21:06:32;102320.31;;;4.31;44.59
12213;BME280;6169;44.158;22.788;2023-02-11T21:11:35;102311.56;;;4.19;44.86
12213;BME280;6169;44.158;22.788;2023-02-11T21:16:38;102294.59;;;4.28;44.88
12213;BME280;6169;44.158;22.788;2023-02-11T21:21:41;102290.50;;;4.04;45.02
12213;BME280;6169;44.158;22.788;2023-02-11T21:26:44;102139.34;;;3.28;44.64
12213;BME280;6169;44.158;22.788;2023-02-11T21:31:46;102303.25;;;4.32;44.10
12213;BME280;6169;44.158;22.788;2023-02-11T21:36:49;102287.56;;;4.37;45.11
12213;BME280;6169;44.158;22.788;2023-02-11T21:41:52;102272.16;;;4.19;46.07
12213;BME280;6169;44.158;22.788;2023-02-11T21:46:55;102253.09;;;4.22;45.91
12213;BME280;6169;44.158;22.788;2023-02-11T21:51:59;102248.59;;;4.23;46.40
12213;BME280;6169;44.158;22.788;2023-02-11T21:57:01;102241.38;;;4.43;46.67
12213;BME280;6169;44.158;22.788;2023-02-11T22:02:03;102246.31;;;4.47;46.08
12213;BME280;6169;44.158;22.788;2023-02-11T22:07:07;102235.19;;;4.42;46.28
12213;BME280;6169;44.158;22.788;2023-02-11T22:12:09;102235.22;;;4.80;44.15
12213;BME280;6169;44.158;22.788;2023-02-11T22:17:11;102234.88;;;4.92;44.04
12213;BME280;6169;44.158;22.788;2023-02-11T22:22:15;102247.09;;;4.77;44.10
12213;BME280;6169;44.158;22.788;2023-02-11T22:27:19;102225.03;;;4.83;43.58
12213;BME280;6169;44.158;22.788;2023-02-11T22:32:21;102227.47;;;4.77;42.89
12213;BME280;6169;44.158;22.788;2023-02-11T22:37:24;102221.50;;;5.20;43.04
12213;BME280;6169;44.158;22.788;2023-02-11T22:42:27;102225.31;;;4.80;43.10
12213;BME280;6169;44.158;22.788;2023-02-11T22:47:29;102224.06;;;4.75;43.32
12213;BME280;6169;44.158;22.788;2023-02-11T22:52:33;102229.16;;;4.78;43.58
12213;BME280;6169;44.158;22.788;2023-02-11T22:57:36;102230.56;;;4.72;43.65
12213;BME280;6169;44.158;22.788;2023-02-11T23:02:38;102227.91;;;4.72;42.98
12213;BME280;6169;44.158;22.788;2023-02-11T23:07:42;102231.84;;;4.78;42.82
12213;BME280;6169;44.158;22.788;2023-02-11T23:12:44;102219.91;;;5.00;43.36
12213;BME280;6169;44.158;22.788;2023-02-11T23:17:46;102207.91;;;4.94;42.88
12213;BME280;6169;44.158;22.788;2023-02-11T23:22:50;102203.13;;;4.88;42.60
12213;BME280;6169;44.158;22.788;2023-02-11T23:27:52;102202.06;;;4.61;42.55
12213;BME280;6169;44.158;22.788;2023-02-11T23:32:54;102192.34;;;4.60;43.08
12213;BME280;6169;44.158;22.788;2023-02-11T23:37:58;102173.81;;;5.04;42.59
12213;BME280;6169;44.158;22.788;2023-02-11T23:43:00;102156.13;;;4.74;43.54
12213;BME280;6169;44.158;22.788;2023-02-11T23:48:02;102149.88;;;4.46;43.80
12213;BME280;6169;44.158;22.788;2023-02-11T23:53:06;102124.03;;;4.73;42.89
12213;BME280;6169;44.158;22.788;2023-02-11T23:58:08;102083.44;;;4.11;42.71
